Hunter, NY (12442)

2:52 PM EDT on September 01, 2015 (GMT -0400)
APRSWXNET | | Change Station
CLOSE
Current Station
Personal Weather Station
Location: Hunter, NY
Elevation: 1605 ft
Nearby Weather Stations

Elev 1605 ft 42.20 °N, 74.20 °W | Updated 36 minutes ago

Partly Cloudy
Partly Cloudy
80 °F
Feels Like 81 °F
N
1
Wind Variable Wind from NNE
Gusts 6.0 mph

Today
High -- | Low -- °F
--% Chance of Precip.
Yesterday
High -- | Low -- °F
Precip. -- in
6:21 AM 7:31 PM
Waning Gibbous, 87% visible
Pressure 30.11 in
Visibility 9.0 miles
Clouds Scattered Clouds 4700 ft
Heat Index 81 °F
Dew Point 61 °F
Humidity 53%
Rainfall in
Snow Depth Not available.
UV 6 out of 12
Pollen 9.30 out of 12
Air Quality Not available.
Flu Activity Not available.
METAR KMSV 011835Z AUTO 01005KT 9SM SCT047 27/17 A3011 RMK AO1
Pressure 30.11 in
Visibility 9.0 miles
Clouds Scattered Clouds 4700 ft
Heat Index 81 °F
Dew Point 61 °F
Humidity 53%
Rainfall in
Snow Depth Not available.
UV 6 out of 12
Pollen 9.30 out of 12
Air Quality Not available.
Flu Activity Not available.
METAR KMSV 011835Z AUTO 01005KT 9SM SCT047 27/17 A3011 RMK AO1

10-Day Weather Forecast

×

Almanac

Astronomy

Sep. 01, 2015 Rise Set
Actual Time
Civil Twilight
Nautical Twilight
Astronomical Twilight
Moon
Length of Visible Light
Length of Day
Tomorrow will be .
, % of the Moon is Illuminated

Today's Extremes

State Highs State Lows

Community

WunderPhotos

Upload Photos

1,851,593 photos uploaded!

WunderBlogs® & News

Nearby

Air Quality

  Air Quality AQ Index Pollutant
Not available.

Snow Depth

Station Depth Elevation

Earthquake Activity

City Distance Mag. Time & Date
Minimum magnitude displayed is 2.5.

Coastal Water Temperatures

Place Temperature

Stations

Nearby Weather Stations

Station Location Temp. Windchill Dew Point Humidity Wind Precip. Elev Updated Type